Flugplatz Leuzendorf Segelflug (UL)

Hier findest Du alle Informationen zum Flugplatz Leuzendorf Segelflug (UL).

Informationen für Piloten zum Flugplatz Leuzendorf Segelflug

Hier findest Du alle relevanten Informationen, die Du als Pilot benötigst, um Leuzendorf Segelflug anzufliegen.

Flugplatz: Leuzendorf Segelflug ICAO-Code: UL Flugplatz
Frequenz Turm: 123.500 Mhz GAFOR Gebiet: 55
Frequenz Ground: 123.350 Mhz Mogas: nein
Platzrunde: S 2000 ft Landegebühr: -
Platzhöhe: Sunrise: 04:51 Uhr UTC
Pisten: 08/26 - 870 m x 25 m, GRAS Sunset: 17:54 Uhr UTC

Flugwetter am Flugplatz Leuzendorf Segelflug

Die METAR Information stammen aus EDDN (74.18 km entfernt).

METAR Code:
2020/03/14 04:50
EDDN 140450Z 14003KT CAVOK M01/M02 Q1021

Flugschulen am Flugplatz Leuzendorf Segelflug

Am Flugplatz Leuzendorf Segelflug gibt es leider keine Flugschule.

Benachbarte Flugplätze und Flugschulen

Es gibt 24 weitere Flugplätze in einem Umkreis von 50 km um den Flugplatz Leuzendorf Segelflug.

Jetzt anmelden

Passwort vergessen

Umfrage Archiv

Haltet Ihr Euch während der Corona-Krise daran, keinen Luftsport zu betreiben?

Ja
76.9 %
Nein
23.1 %
Stimmen: 13 | Diskussion
Anzeige: Roland Aircraft
Statistik Alle Mitglieder

Aktuell sind 27 Besucher online, davon 1 Mitglied und 26 Gäste.


Mitglieder online:
schweini02 

Anzeige: VFR Sprechfunk Simulator


Anzeige: Pocket FMS